Decoded Metar for KBVE (BOOTHVILLE in LA, USA) (IATA:BVE) | Meteo·Mobile Aviation Weather
aviador You're here:

KBVE Decoded Metar

BOOTHVILLE in LA, USA
Report Time2019-04-23 16:36:00
UTC Time2019-04-23 16:50:46
Flight Rules vfr VFR
Wind110° at 08 kt
Visibility9999 m
Phenomena:N/A
Clouds:Few 027 Hf
Expected CloudBase > 2,400 ft AGL from Temp-Dew spread
CeilingNone
Temp22°C (ISA +7)
Dew Point16°C (69% RH)
AAT21.1°C
QNH1021 hPa
Density Alt791 ft
Elevation3 ft
Report Wrong Elevation
Raw Report
KBVE 231636Z AUTO 11008KT 10SM FEW027 22/16 A3016 RMK AO2
T02220156=

Extra information for KBVE:More info

Metar Taf Metar & Taf Last 4 Metars F.Rules Stats Wind Profile Meteogram Temp Stats Airport Information Weather charts Add Link Nearby VenuesMetar ALERT Operation Metar Decoded Social comments

AIRNAV info for KBVE